Yacuiba Airport

Airport
ICAO code: 
SLYA
IATA Code: 
BYC
Summary
ICAO Region: 
CARSAM
Territory: 
Location: 
Yacuiba, Tarija
Serving: 
Yacuiba
Elevation: 
2112 ft
Coordinates: 
Aerial View: 
21° 57' 39.33" S, 63° 39' 6.008" W
Metar
Observation
SLYA 181900Z 00000KT 9999 FEW023 OVC070 28/24 Q1010
Station
Yacuiba
Date/Time
2022-01-18 19:00:00
Wind direction
Wind speed
00 kts
Lowest cloud amount
few clouds
Temperature
28°C
Dew point
24°C
Humidity
78%
QNH
1010 hPa
Weather condition
n/a

Airport 4 km north of Yacuiba, a city in the Tarija Department of Bolivia.

Climatology

Humid sub-tropical climate (Köppen climate classification Cwa).

Runways

Designator Length Width Surface Rops
2/20 2100 36 ASP No/No
Airport map: 
Aerial View: 

SKYbrary Partners:

Safety knowledge contributed by: